Nearby METAR Reports (Airport Weather)

 

KBZN - Bozeman Yellowstone Intl Airport, Montana
Distance from station: ESE 1mi, 2km
Updated: Thu, 04-Jun-2020 4:56am MDT
Mostly cloudy
Mostly cloudy
 Wind from S
Wind: S 7 mph , 11 km/h
Temperature: 54°F , 12°C
Dew Point: 45°F , 7°C
Humidity: 72%
Barometer: 29.91 inHg , 1012.9 hPa
Clouds: Mostly cloudy
Visibility: 10 miles , 16 km
Cloud details: Mostly cloudy 9000 ft
Mostly cloudy 11000 ft
2020/06/04 10:56 KBZN 041056Z 18006KT 10SM BKN090 BKN110 12/07 A2991 RMK AO2 SLP095 T01220072
KLVM - Mission Field, Livingston, Montana
Distance from station: E 37mi, 59km
Updated: Thu, 04-Jun-2020 4:53am MDT
Overcast
Overcast
 Wind from S
Wind: S 5 mph , 7 km/h
Temperature: 52°F , 11°C
Dew Point: 45°F , 7°C
Humidity: 77%
Barometer: 29.91 inHg , 1012.9 hPa
Clouds: Overcast
Visibility: 10 miles , 16 km
Cloud details: Mostly cloudy 9500 ft
Overcast 12000 ft
2020/06/04 10:53 KLVM 041053Z AUTO 19004KT 10SM BKN095 OVC120 11/07 A2991 RMK AO2 SLP089 T01060072
 
KEKS - Big Sky Airport, Ennis, Montana
Distance from station: SSW 43mi, 69km
Updated: Thu, 04-Jun-2020 4:55am MDT
Overcast
Overcast
 Wind from SSW
Wind: SSW 8 mph , 13 km/h
Temperature: 54°F , 12°C
Dew Point: 45°F , 7°C
Humidity: 72%
Barometer: 29.99 inHg , 1015.6 hPa
Clouds: Overcast
Visibility: 10 miles , 16 km
Cloud details: Overcast 11000 ft
2020/06/04 10:55 KEKS 041055Z AUTO 21007KT 10SM OVC110 12/07 A2999 RMK AO2